• Join FlightAware (Why Join?)
  • Login
  • US Flag 
09:10PM EDT


 

Airport Tracker/Info


-or-


 

Live Flight TrackerFlight Track Log ✈ DAL1802 ✈ 03-Jul-2013 ✈ KOKC - KATL

Flight Track Log - Related Links

Times and Time Zones

All times are in EDT time to prevent confusion due to time zone crossing. See the DAL1802 flight status page for this flight to view local times or setup timezone preferences in your user account.

Time Position Orientation Groundspeed Altitude Reporting Facility
EDT Latitude Longitude Course Direction KTS MPH feet Rate Location/Type
12:54PM 35.3664 -97.5942 104° East 179 206 2,000  Level Fort Worth Center
12:56PM 35.3144 -97.5103 127° Southeast 206 237 4,400 1,980 Climbing Fort Worth Center
12:57PM 35.3944 -97.1955 84° East  Level FlightAware Approximate
12:57PM 35.3061 -97.4033 95° East 242 278 7,700  Level Fort Worth Center
12:58PM 35.4000 -97.0608 90° East  Level FlightAware Approximate
12:58PM 35.3039 -97.3144 92° East 277 319 10,200  Level Fort Worth Center
12:59PM 35.4000 -96.9257 90° East  Level FlightAware Approximate
12:59PM 35.2914 -97.2050 98° East 298 343 11,100  Level Fort Worth Center
01:00PM 35.3917 -96.7918 104° East  Level FlightAware Approximate
01:00PM 35.2722 -97.0678 100° East 351 404 13,300  Level Fort Worth Center
01:01PM 35.2594 -96.9381 97° East 372 428 15,300 1,860 Climbing Fort Worth Center
01:02PM 35.2400 -96.8011 100° East 391 450 17,100 1,800 Climbing Fort Worth Center
01:03PM 35.1933 -96.6717 114° Southeast 398 458 18,900 1,680 Climbing Fort Worth Center
01:04PM 35.1467 -96.5375 113° Southeast 415 478 20,500 1,560 Climbing Fort Worth Center
01:05PM 35.0997 -96.4011 113° Southeast 426 490 22,100 1,500 Climbing Fort Worth Center
01:06PM 35.0506 -96.2622 113° Southeast 438 504 23,600 1,380 Climbing Fort Worth Center
01:07PM 35.0117 -96.1156 108° East 443 510 24,900 1,080 Climbing Fort Worth Center
01:08PM 34.9744 -95.9692 107° East 448 516 25,800 900 Climbing Fort Worth Center
01:09PM 34.9622 -95.8125 95° East 460 529 26,800 960 Climbing Fort Worth Center
01:11PM 34.9369 -95.4461 95° East 471 542 29,000 960 Climbing Memphis Center
01:12PM 34.9261 -95.2986 95° East 484 557 30,000 900 Climbing Memphis Center
01:13PM 34.9158 -95.1358 94° East 484 557 30,900 1,020 Climbing Memphis Center
01:14PM 34.9036 -94.9631 95° East 484 557 32,100 960 Climbing Memphis Center
01:15PM 34.8906 -94.8028 96° East 479 551 32,900 780 Climbing Memphis Center
01:16PM 34.8836 -94.6431 93° East 479 551 33,700 720 Climbing Memphis Center
01:17PM 34.8703 -94.4828 96° East 479 551 34,400 600 Climbing Memphis Center
01:18PM 34.8547 -94.3250 97° East 479 551 35,000 300 Climbing Memphis Center
01:19PM 34.8447 -94.1728 95° East 467 537 35,000  Level Memphis Center
01:20PM 34.8328 -94.0181 95° East 462 532 35,000  Level Memphis Center
01:21PM 34.8183 -93.8631 96° East 457 526 35,000  Level Memphis Center
01:22PM 34.8081 -93.7108 95° East 457 526 35,000  Level Memphis Center
01:23PM 34.7994 -93.5564 94° East 457 526 35,000  Level Memphis Center
01:24PM 34.8097 -93.4000 85° East 457 526 35,000  Level Memphis Center
01:25PM 34.8239 -93.2461 84° East 457 526 35,000  Level Memphis Center
01:26PM 34.8336 -93.0894 86° East 462 532 35,000  Level Memphis Center
01:27PM 34.8431 -92.9356 86° East 462 532 35,000  Level Memphis Center
01:28PM 34.8544 -92.7789 85° East 462 532 35,000  Level Memphis Center
01:29PM 34.8633 -92.6400 86° East 462 532 35,000  Level Memphis Center
01:30PM 34.8744 -92.4833 85° East 457 526 35,000  Level Memphis Center
01:31PM 34.8875 -92.3267 84° East 462 532 35,000  Level Memphis Center
01:32PM 34.8961 -92.1700 86° East 462 532 35,000  Level Memphis Center
01:33PM 34.9089 -92.0133 84° East 462 532 35,000  Level Memphis Center
01:34PM 34.9150 -91.8564 87° East 462 532 35,000  Level Memphis Center
01:35PM 34.9250 -91.6994 86° East 462 532 35,000  Level Memphis Center
01:36PM 34.9331 -91.5425 86° East 462 532 35,000  Level Memphis Center
01:37PM 34.9428 -91.3856 86° East 462 532 35,000  Level Memphis Center
01:38PM 34.9544 -91.2108 85° East 462 532 35,000  Level Memphis Center
01:39PM 34.9636 -91.0539 86° East 470 541 35,000  Level Memphis Center
01:40PM 34.9728 -90.8892 86° East 470 541 35,000  Level Memphis Center
01:41PM 34.9797 -90.7297 87° East 477 549 35,000  Level Memphis Center
01:42PM 34.9906 -90.5700 85° East 477 549 35,000  Level Memphis Center
01:43PM 34.9969 -90.4103 87° East 477 549 35,000  Level Memphis Center
01:44PM 35.0053 -90.2481 86° East 477 549 35,000  Level Memphis Center
01:45PM 35.0133 -90.0933 86° East 472 543 35,000  Level Memphis Center
01:46PM 35.0150 -89.9539 89° East 467 537 35,000  Level Memphis Center
01:47PM 34.9978 -89.8019 98° East 452 520 35,000  Level Memphis Center
01:48PM 34.9719 -89.6322 100° East 457 526 35,000  Level Memphis Center
01:49PM 34.9436 -89.4856 103° East 452 520 35,000  Level Memphis Center
01:50PM 34.9217 -89.3389 100° East 447 514 35,000  Level Memphis Center
01:51PM 34.8997 -89.1922 100° East 447 514 35,000  Level Memphis Center
01:52PM 34.8772 -89.0483 101° East 439 505 35,000  Level Memphis Center
01:53PM 34.8547 -88.9019 101° East 439 505 35,000  Level Memphis Center
01:54PM 34.8300 -88.7581 102° East 434 499 35,000  Level Memphis Center
01:55PM 34.8117 -88.6294 100° East 429 494 35,000  Level Memphis Center
01:56PM 34.7864 -88.4758 101° East 429 494 35,000 -300 Level Memphis Center
01:57PM 34.7656 -88.3322 100° East 424 488 34,500 -780 Descending Memphis Center
01:58PM 34.7422 -88.1861 101° East 429 494 33,500 -780 Descending Memphis Center
01:59PM 34.7186 -88.0478 102° East 452 520 33,000 -300 Descending Memphis Center
02:00PM 34.6950 -87.9044 101° East 447 514 33,000  Level Memphis Center
02:01PM 34.6689 -87.7461 101° East 441 507 33,000  Level Memphis Center
02:02PM 34.6469 -87.6003 100° East 441 507 33,000  Level Memphis Center
02:04PM 34.6019 -87.3244 101° East 437 503 33,000  Level Atlanta Center
02:05PM 34.5722 -87.1794 104° East 437 503 33,000  Level Atlanta Center
02:06PM 34.5447 -87.0297 103° East 442 509 33,000  Level Atlanta Center
02:07PM 34.5186 -86.9003 104° East 442 509 33,000 -240 Level Atlanta Center
02:08PM 34.4906 -86.7581 103° East 437 503 32,600 -660 Descending Atlanta Center
02:09PM 34.4603 -86.6111 104° East 437 503 31,700 -960 Descending Atlanta Center
02:10PM 34.4342 -86.4642 102° East 437 503 30,700 -1,020 Descending Atlanta Center
02:11PM 34.4056 -86.3147 103° East 437 503 29,700 -1,020 Descending Atlanta Center
02:12PM 34.3747 -86.1681 104° East 437 503 28,700 -960 Descending Atlanta Center
02:13PM 34.3461 -86.0239 103° East 437 503 27,800 -960 Descending Atlanta Center
02:14PM 34.3169 -85.8772 103° East 437 503 26,800 -1,260 Descending Atlanta Center
02:15PM 34.2897 -85.7383 103° East 432 497 25,300 -2,040 Descending Atlanta Center
02:16PM 34.2622 -85.5997 103° East 427 491 22,800 -2,400 Descending Atlanta Center
02:17PM 34.2347 -85.4658 104° East 415 478 20,500 -2,340 Descending Atlanta Center
02:18PM 34.2089 -85.3375 104° East 402 463 18,200 -2,280 Descending Atlanta Center
02:19PM 34.1853 -85.2114 103° East 390 449 16,000 -1,800 Descending Atlanta Center
02:20PM 34.1467 -85.1006 113° Southeast 368 423 14,700 -1,020 Descending Atlanta Center
02:21PM 34.0847 -85.0169 132° Southeast 308 354 14,000 -420 Descending Atlanta Center
02:22PM 34.0267 -84.9461 135° Southeast 301 346 13,900 -900 Descending Atlanta Center
02:23PM 33.9708 -84.8731 133° Southeast 295 339 12,300 -960 Descending Atlanta Center
02:24PM 33.9172 -84.8047 133° Southeast 295 339 12,000 -180 Descending Atlanta Center
02:26PM 33.8333 -84.7000 134° Southeast 289 333 12,000  Level Atlanta TRACON
02:27PM 33.7833 -84.6333 132° Southeast 286 329 12,000 -240 Level Atlanta TRACON
02:28PM 33.7333 -84.5667 132° Southeast 288 331 11,600 -1,440 Descending Atlanta TRACON
02:29PM 33.7333 -84.4667 90° East 315 362 9,200 -2,160 Descending Atlanta TRACON
02:29PM 33.7333 -84.3667 90° East 293 337 7,500 -1,620 Descending Atlanta TRACON
02:30PM 33.7333 -84.2667 90° East 281 323 6,200 -1,260 Descending Atlanta TRACON
02:32PM 33.7333 -84.1667 90° East 277 319 4,900 -600 Descending Atlanta TRACON
02:33PM 33.7333 -84.1000 90° East 235 270 5,000  Climbing Atlanta TRACON
02:34PM 33.7333 -84.0167 90° East 241 277 5,000  Level Atlanta TRACON
02:35PM 33.6833 -83.9833 151° Southeast 210 242 5,000  Level Atlanta TRACON
02:36PM 33.6500 -84.0333 231° Southwest 217 250 5,000 -60 Level Atlanta TRACON
02:36PM 33.6500 -84.0833 270° West 189 217 4,900  Descending Atlanta TRACON
02:37PM 33.6500 -84.1500 270° West 192 221 5,000 60 Climbing Atlanta TRACON